createdAt,value
2018-06-05T00:00:05.775Z,10.1
2018-06-05T00:10:51.632Z,10.6
2018-06-05T00:21:03.550Z,9.3
2018-06-05T00:31:17.984Z,8.8
2018-06-05T00:42:03.031Z,11.9
2018-06-05T00:52:18.717Z,10.4
2018-06-05T01:05:51.621Z,10.7
2018-06-05T01:16:13.612Z,9.2
2018-06-05T01:30:02.818Z,11.1
2018-06-05T01:40:17.005Z,7.8
2018-06-05T01:50:31.310Z,7.9
2018-06-05T02:01:16.255Z,10.3
2018-06-05T02:12:01.075Z,9.5
2018-06-05T02:22:13.410Z,9.0
2018-06-05T02:32:27.511Z,7.7
2018-06-05T02:42:39.693Z,6.7
2018-06-05T02:53:25.718Z,10.8
2018-06-05T03:03:39.814Z,4.1
2018-06-05T03:14:24.685Z,7.3
2018-06-05T03:25:08.903Z,10.4
2018-06-05T03:35:23.020Z,6.8
2018-06-05T03:45:37.407Z,5.7
2018-06-05T03:55:51.681Z,7.2
2018-06-05T04:06:36.339Z,8.5
2018-06-05T04:17:22.138Z,7.4
2018-06-05T04:27:36.596Z,7.7
2018-06-05T04:38:21.190Z,6.2
2018-06-05T04:49:08.933Z,9.2
2018-06-05T04:59:24.016Z,6.6
2018-06-05T05:09:38.469Z,6.0
2018-06-05T05:30:36.609Z,7.2
2018-06-05T05:51:35.368Z,8.3
2018-06-05T06:01:49.363Z,7.4
2018-06-05T06:12:03.782Z,6.9
2018-06-05T06:22:18.133Z,8.7
2018-06-05T06:32:32.866Z,5.8
2018-06-05T06:42:49.084Z,7.8
2018-06-05T07:05:35.295Z,10.6
2018-06-05T07:16:40.877Z,8.6
2018-06-05T07:26:56.925Z,8.9
2018-06-05T07:37:42.402Z,8.3
2018-06-05T07:48:27.528Z,9.0
2018-06-05T07:58:42.264Z,6.6
2018-06-05T08:08:56.218Z,5.0
2018-06-05T08:19:41.050Z,6.8
2018-06-05T08:29:59.116Z,6.4
2018-06-05T08:40:13.735Z,5.5
2018-06-05T08:50:31.406Z,8.1
2018-06-05T09:01:17.847Z,9.5
2018-06-05T09:12:02.263Z,11.7
2018-06-05T09:22:47.102Z,9.8
2018-06-05T09:32:59.596Z,7.9
2018-06-05T09:43:13.736Z,8.7
2018-06-05T09:53:28.628Z,7.9
2018-06-05T10:04:02.322Z,8.3
2018-06-05T10:14:49.314Z,8.4
2018-06-05T10:26:30.684Z,9.2
2018-06-05T10:36:58.393Z,7.9
2018-06-05T10:47:43.106Z,9.8
2018-06-05T10:58:29.086Z,8.3
2018-06-05T11:08:43.791Z,5.1
2018-06-05T11:19:17.660Z,6.4
2018-06-05T11:30:09.763Z,6.5
2018-06-05T11:40:57.812Z,8.9
2018-06-05T11:51:12.377Z,6.2
2018-06-05T12:01:57.019Z,7.5
2018-06-05T12:14:31.248Z,7.9
2018-06-05T12:25:16.714Z,6.3
2018-06-05T12:44:32.232Z,8.0
2018-06-05T13:11:58.040Z,6.7
2018-06-05T13:22:11.812Z,5.4
2018-06-05T13:32:26.762Z,10.3
2018-06-05T13:42:41.786Z,4.5
2018-06-05T13:52:56.547Z,5.8
2018-06-05T14:03:10.851Z,5.7
2018-06-05T14:13:25.450Z,7.0
2018-06-05T14:23:39.490Z,6.6
2018-06-05T14:33:54.425Z,6.9
2018-06-05T14:44:10.735Z,8.4
2018-06-05T14:54:25.505Z,7.9
2018-06-05T15:04:37.882Z,7.4
2018-06-05T15:15:02.659Z,8.6
2018-06-05T15:25:52.898Z,5.2
2018-06-05T15:36:05.567Z,5.8
2018-06-05T15:50:52.191Z,7.0
2018-06-05T16:01:07.696Z,6.0
2018-06-05T16:13:05.807Z,6.3
2018-06-05T16:23:19.863Z,5.0
2018-06-05T16:34:42.140Z,5.0
2018-06-05T16:44:58.159Z,6.6
2018-06-05T16:55:15.609Z,4.7
2018-06-05T17:05:32.935Z,4.5
2018-06-05T17:15:48.478Z,5.4
2018-06-05T17:26:06.527Z,6.0
2018-06-05T17:36:33.936Z,4.7
2018-06-05T17:46:48.753Z,4.7
2018-06-05T17:57:03.185Z,4.4
2018-06-05T19:26:02.716Z,5.7
2018-06-05T19:38:08.226Z,4.8
2018-06-05T19:49:50.399Z,4.7
2018-06-05T20:02:20.725Z,5.0
2018-06-05T20:12:35.242Z,4.2
2018-06-05T20:22:50.316Z,3.7
2018-06-05T20:33:04.723Z,3.9
2018-06-05T20:43:18.412Z,5.1
2018-06-05T20:54:25.261Z,7.1
2018-06-05T21:05:11.068Z,5.8
2018-06-05T21:15:28.906Z,4.9
2018-06-05T21:25:42.738Z,4.7
2018-06-05T21:36:32.199Z,7.1
2018-06-05T21:46:46.932Z,3.4
2018-06-05T22:07:21.295Z,4.5
2018-06-05T22:17:35.530Z,4.5
2018-06-05T22:27:49.952Z,4.2
2018-06-05T22:38:01.655Z,4.2
2018-06-05T22:48:15.953Z,2.9
2018-06-05T22:58:29.904Z,3.5
2018-06-05T23:08:44.048Z,5.4
2018-06-05T23:18:58.506Z,5.4
2018-06-05T23:29:11.105Z,5.2
2018-06-05T23:39:24.820Z,5.4
2018-06-05T23:49:36.446Z,5.0
2018-06-05T23:59:50.446Z,4.0
